createdAt,value
2017-12-13T00:04:44.208Z,79.30
2017-12-13T00:09:45.724Z,79.30
2017-12-13T00:14:47.225Z,79.70
2017-12-13T00:19:48.769Z,79.30
2017-12-13T00:24:50.303Z,79.60
2017-12-13T00:29:51.877Z,79.10
2017-12-13T00:34:53.388Z,79.40
2017-12-13T00:39:54.893Z,78.50
2017-12-13T00:44:57.126Z,79.00
2017-12-13T00:49:58.630Z,78.90
2017-12-13T00:55:00.188Z,78.80
2017-12-13T01:00:01.761Z,79.30
2017-12-13T01:05:03.275Z,79.80
2017-12-13T01:10:04.769Z,79.50
2017-12-13T01:15:06.272Z,79.50
2017-12-13T01:20:07.787Z,79.00
2017-12-13T01:25:09.268Z,78.90
2017-12-13T01:30:10.766Z,79.10
2017-12-13T01:35:12.301Z,79.20
2017-12-13T01:40:14.477Z,79.60
2017-12-13T01:45:15.985Z,79.70
2017-12-13T01:50:17.513Z,80.10
2017-12-13T01:55:19.017Z,80.00
2017-12-13T02:00:20.508Z,80.40
2017-12-13T02:05:22.005Z,80.70
2017-12-13T02:10:23.502Z,81.40
2017-12-13T02:15:25.037Z,81.80
2017-12-13T02:20:26.604Z,82.10
2017-12-13T02:25:28.118Z,82.40
2017-12-13T02:30:29.641Z,82.60
2017-12-13T02:35:31.149Z,82.80
2017-12-13T02:40:51.009Z,83.00
2017-12-13T02:45:59.364Z,83.10
2017-12-13T02:51:00.856Z,83.40
2017-12-13T02:56:03.177Z,83.80
2017-12-13T03:01:04.705Z,83.70
2017-12-13T03:06:06.167Z,83.50
2017-12-13T03:11:07.670Z,83.30
2017-12-13T03:16:09.168Z,83.30
2017-12-13T03:21:10.693Z,83.50
2017-12-13T03:26:12.938Z,84.40
2017-12-13T03:31:14.456Z,84.40
2017-12-13T03:36:15.976Z,84.60
2017-12-13T03:41:17.543Z,84.20
2017-12-13T03:46:19.101Z,83.70
2017-12-13T03:51:20.622Z,84.20
2017-12-13T03:56:22.202Z,83.20
2017-12-13T04:01:23.726Z,82.80
2017-12-13T04:06:25.222Z,82.70
2017-12-13T04:11:26.727Z,82.20
2017-12-13T04:16:28.369Z,81.70
2017-12-13T04:21:30.261Z,81.70
2017-12-13T04:26:31.863Z,81.90
2017-12-13T04:31:33.663Z,81.20
2017-12-13T04:36:35.202Z,81.10
2017-12-13T04:41:36.941Z,81.30
2017-12-13T04:46:38.970Z,81.60
2017-12-13T04:51:41.412Z,80.90
2017-12-13T04:56:42.949Z,80.90
2017-12-13T05:01:45.198Z,80.80
2017-12-13T05:06:46.864Z,80.70
2017-12-13T05:11:48.393Z,80.60
2017-12-13T05:16:49.954Z,80.00
2017-12-13T05:21:51.491Z,80.80
2017-12-13T05:26:53.744Z,80.00
2017-12-13T05:31:55.282Z,80.00
2017-12-13T05:36:56.786Z,80.10
2017-12-13T05:41:58.286Z,79.90
2017-12-13T05:47:00.520Z,79.70
2017-12-13T05:52:02.047Z,79.60
2017-12-13T05:57:03.658Z,80.00
2017-12-13T06:02:05.172Z,79.30
2017-12-13T06:07:07.398Z,79.30
2017-12-13T06:12:08.904Z,79.20
2017-12-13T06:17:10.550Z,79.40
2017-12-13T06:22:12.066Z,79.60
2017-12-13T06:27:14.319Z,79.30
2017-12-13T06:32:22.818Z,79.30
2017-12-13T06:37:24.361Z,79.00
2017-12-13T06:42:25.868Z,79.30
2017-12-13T06:47:27.392Z,79.20
2017-12-13T06:52:28.859Z,79.10
2017-12-13T06:57:30.497Z,78.90
2017-12-13T07:02:32.007Z,78.80
2017-12-13T07:07:33.486Z,78.90
2017-12-13T07:12:35.036Z,78.30
2017-12-13T07:17:36.521Z,78.50
2017-12-13T07:22:38.864Z,77.70
2017-12-13T07:27:41.099Z,77.30
2017-12-13T07:32:42.634Z,77.30
2017-12-13T07:37:44.157Z,76.50
2017-12-13T07:42:45.727Z,76.30
2017-12-13T07:47:47.206Z,76.30
2017-12-13T07:52:49.448Z,76.30
2017-12-13T07:57:50.909Z,76.30
2017-12-13T08:02:52.431Z,75.80
2017-12-13T08:07:54.712Z,75.80
2017-12-13T08:12:57.025Z,75.70
2017-12-13T08:17:58.559Z,75.70
2017-12-13T08:23:00.820Z,77.50
2017-12-13T08:28:02.376Z,76.70
2017-12-13T08:33:03.896Z,75.70
2017-12-13T08:38:05.498Z,75.60
2017-12-13T08:43:07.061Z,73.80
2017-12-13T08:48:08.569Z,72.70
2017-12-13T08:53:10.098Z,72.00
2017-12-13T08:58:11.635Z,70.70
2017-12-13T09:03:20.938Z,70.80
2017-12-13T09:08:22.378Z,70.80
2017-12-13T09:13:23.920Z,70.90
2017-12-13T09:18:25.417Z,70.20
2017-12-13T09:23:26.949Z,69.70
2017-12-13T09:28:29.183Z,69.90
2017-12-13T09:33:30.746Z,69.00
2017-12-13T09:38:32.285Z,69.10
2017-12-13T09:43:33.769Z,67.70
2017-12-13T09:48:35.256Z,67.60
2017-12-13T09:53:36.854Z,66.90
2017-12-13T09:58:39.105Z,66.10
2017-12-13T10:03:40.691Z,66.10
2017-12-13T10:08:42.191Z,65.70
2017-12-13T10:13:43.737Z,65.80
2017-12-13T10:18:45.280Z,66.00
2017-12-13T10:23:46.816Z,65.60
2017-12-13T10:28:55.328Z,65.40
2017-12-13T10:33:57.574Z,63.40
2017-12-13T10:38:59.073Z,63.40
2017-12-13T10:44:00.605Z,62.40
2017-12-13T10:49:02.086Z,62.30
2017-12-13T10:54:03.623Z,62.50
2017-12-13T10:59:05.154Z,62.90
2017-12-13T11:04:06.641Z,63.50
2017-12-13T11:09:08.154Z,63.10
2017-12-13T11:14:09.638Z,62.70
2017-12-13T11:19:11.909Z,63.40
2017-12-13T11:24:14.152Z,62.80
2017-12-13T11:29:15.671Z,62.80
2017-12-13T11:34:17.946Z,62.90
2017-12-13T11:39:20.220Z,62.70
2017-12-13T11:44:21.794Z,63.50
2017-12-13T11:49:24.063Z,63.60
2017-12-13T11:54:31.577Z,62.70
2017-12-13T11:59:33.044Z,65.10
2017-12-13T12:04:34.561Z,67.40
2017-12-13T12:09:36.108Z,67.60
2017-12-13T12:14:38.573Z,68.90
2017-12-13T12:19:40.134Z,69.50
2017-12-13T12:24:41.667Z,70.00
2017-12-13T12:29:43.186Z,70.90
2017-12-13T12:34:45.446Z,70.90
2017-12-13T12:39:46.980Z,70.90
2017-12-13T12:44:48.509Z,71.50
2017-12-13T12:49:50.819Z,71.80
2017-12-13T12:54:52.372Z,71.80
2017-12-13T12:59:53.901Z,72.00
2017-12-13T13:04:55.445Z,72.40
2017-12-13T13:09:57.020Z,72.50
2017-12-13T13:14:58.520Z,74.00
2017-12-13T13:20:07.680Z,77.20
2017-12-13T13:25:09.972Z,78.80
2017-12-13T13:30:11.630Z,78.80
2017-12-13T13:35:20.929Z,80.60
2017-12-13T13:40:22.461Z,80.60
2017-12-13T13:45:24.000Z,81.80
2017-12-13T13:50:26.237Z,82.70
2017-12-13T13:55:27.772Z,82.10
2017-12-13T14:00:29.311Z,81.80
2017-12-13T14:05:30.865Z,81.50
2017-12-13T14:10:32.351Z,81.50
2017-12-13T14:15:33.969Z,81.40
2017-12-13T14:20:35.497Z,81.10
2017-12-13T14:25:37.774Z,82.30
2017-12-13T14:30:40.062Z,83.30
2017-12-13T14:35:42.336Z,83.20
2017-12-13T14:40:43.903Z,83.20
2017-12-13T14:45:45.463Z,84.30
2017-12-13T14:50:46.980Z,84.50
2017-12-13T14:55:48.512Z,84.80
2017-12-13T15:00:50.022Z,85.60
2017-12-13T15:05:51.545Z,86.00
2017-12-13T15:10:53.068Z,86.20
2017-12-13T15:15:54.634Z,85.90
2017-12-13T15:20:56.191Z,86.20
2017-12-13T15:25:57.756Z,86.40
2017-12-13T15:30:59.287Z,86.30
2017-12-13T15:36:01.536Z,86.90
2017-12-13T15:41:03.227Z,86.90
2017-12-13T15:46:04.837Z,87.10
2017-12-13T15:51:06.350Z,87.20
2017-12-13T15:56:07.875Z,87.20
2017-12-13T16:01:09.491Z,87.20
2017-12-13T16:06:11.057Z,87.70
2017-12-13T16:11:12.604Z,87.40
2017-12-13T16:16:14.207Z,87.20
2017-12-13T16:21:15.707Z,86.90
2017-12-13T16:26:17.297Z,87.30
2017-12-13T16:31:18.940Z,87.10
2017-12-13T16:36:20.457Z,87.10
2017-12-13T16:41:22.061Z,87.10
2017-12-13T16:46:24.406Z,87.60
2017-12-13T16:51:25.925Z,87.60
2017-12-13T16:56:27.483Z,87.60
2017-12-13T17:01:29.730Z,87.50
2017-12-13T17:06:31.259Z,87.50
2017-12-13T17:11:32.831Z,87.10
2017-12-13T17:16:34.334Z,87.00
2017-12-13T17:21:35.836Z,86.60
2017-12-13T17:26:38.125Z,86.50
2017-12-13T17:31:39.659Z,86.40
2017-12-13T17:36:41.208Z,86.10
2017-12-13T17:41:42.757Z,86.20
2017-12-13T17:46:44.266Z,86.00
2017-12-13T17:51:45.747Z,86.20
2017-12-13T17:56:48.078Z,85.60
2017-12-13T18:01:49.641Z,85.60
2017-12-13T18:06:51.217Z,85.40
2017-12-13T18:11:52.733Z,85.20
2017-12-13T18:16:55.546Z,85.50
2017-12-13T18:21:57.183Z,85.50
2017-12-13T18:26:58.748Z,85.40
2017-12-13T18:32:00.305Z,85.10
2017-12-13T18:37:01.761Z,85.10
2017-12-13T18:42:03.199Z,84.90
2017-12-13T18:47:04.635Z,85.00
2017-12-13T18:52:06.938Z,85.30
2017-12-13T18:57:08.500Z,85.30
2017-12-13T19:02:10.790Z,84.80
2017-12-13T19:07:12.323Z,84.70
2017-12-13T19:12:13.907Z,84.80
2017-12-13T19:17:16.215Z,84.40
2017-12-13T19:22:17.716Z,84.30
2017-12-13T19:27:19.208Z,84.30
2017-12-13T19:32:20.674Z,84.30
2017-12-13T19:37:22.290Z,84.50
2017-12-13T19:42:23.739Z,85.10
2017-12-13T19:47:25.365Z,85.10
2017-12-13T19:52:26.943Z,85.30
2017-12-13T19:57:28.485Z,85.20
2017-12-13T20:02:30.187Z,85.30
2017-12-13T20:07:31.730Z,85.10
2017-12-13T20:12:33.272Z,85.00
2017-12-13T20:17:34.886Z,84.50
2017-12-13T20:22:36.465Z,84.70
2017-12-13T20:27:37.992Z,84.40
2017-12-13T20:32:39.537Z,84.50
2017-12-13T20:37:41.002Z,84.30
2017-12-13T20:42:42.623Z,84.30
2017-12-13T20:47:44.138Z,84.20
2017-12-13T20:52:45.721Z,84.20
2017-12-13T20:57:47.298Z,84.20
2017-12-13T21:02:48.836Z,84.40
2017-12-13T21:07:50.379Z,84.50
2017-12-13T21:12:51.933Z,84.70
2017-12-13T21:17:53.494Z,85.10
2017-12-13T21:22:55.103Z,85.40
2017-12-13T21:27:57.340Z,86.30
2017-12-13T21:32:58.881Z,86.30
2017-12-13T21:38:00.339Z,86.50
2017-12-13T21:43:01.924Z,86.60
2017-12-13T21:48:03.449Z,86.80
2017-12-13T21:53:05.726Z,87.40
2017-12-13T21:58:07.954Z,88.20
2017-12-13T22:03:09.588Z,87.40
2017-12-13T22:08:11.818Z,88.10
2017-12-13T22:13:13.367Z,88.10
2017-12-13T22:18:14.896Z,88.30
2017-12-13T22:23:17.149Z,88.30
2017-12-13T22:28:19.512Z,88.50
2017-12-13T22:33:21.006Z,88.50
2017-12-13T22:38:22.510Z,88.10
2017-12-13T22:43:24.733Z,87.50
2017-12-13T22:48:26.224Z,87.40
2017-12-13T22:53:27.836Z,87.50
2017-12-13T22:58:29.401Z,87.40
2017-12-13T23:03:31.677Z,87.30
2017-12-13T23:08:33.331Z,87.20
2017-12-13T23:13:34.837Z,86.80
2017-12-13T23:18:36.326Z,86.40
2017-12-13T23:23:37.854Z,86.30
2017-12-13T23:28:40.149Z,86.80
2017-12-13T23:33:42.403Z,86.70
2017-12-13T23:38:43.949Z,86.60
2017-12-13T23:43:45.481Z,86.80
2017-12-13T23:48:46.988Z,87.10
2017-12-13T23:53:48.508Z,87.00
2017-12-13T23:58:50.804Z,87.10
